createdAt,value
2022-11-20T00:01:47.292Z,53.6
2022-11-20T00:06:48.111Z,53.6
2022-11-20T00:11:48.968Z,53.5
2022-11-20T00:16:49.763Z,53.4
2022-11-20T00:21:50.558Z,53.3
2022-11-20T00:26:51.417Z,53.3
2022-11-20T00:31:52.291Z,53.2
2022-11-20T00:36:53.118Z,53.1
2022-11-20T00:41:53.962Z,53
2022-11-20T00:46:54.807Z,52.9
2022-11-20T00:51:55.656Z,52.9
2022-11-20T00:56:56.477Z,52.8
2022-11-20T01:01:58.410Z,52.7
2022-11-20T01:06:59.292Z,52.7
2022-11-20T01:12:00.150Z,52.6
2022-11-20T01:17:00.973Z,52.5
2022-11-20T01:22:02.005Z,52.4
2022-11-20T01:27:02.803Z,52.4
2022-11-20T01:32:03.567Z,52.2
2022-11-20T01:37:04.362Z,52.2
2022-11-20T01:42:09.569Z,52.1
2022-11-20T01:47:10.472Z,52.1
2022-11-20T01:52:11.233Z,52
2022-11-20T01:57:11.997Z,51.9
2022-11-20T02:02:13.588Z,51.9
2022-11-20T02:07:14.390Z,51.7
2022-11-20T02:12:15.157Z,51.7
2022-11-20T02:17:15.884Z,51.6
2022-11-20T02:22:16.624Z,51.6
2022-11-20T02:27:17.355Z,51.5
2022-11-20T02:32:18.115Z,51.4
2022-11-20T02:37:18.860Z,51.4
2022-11-20T02:42:19.777Z,51.3
2022-11-20T02:47:20.499Z,51.2
2022-11-20T02:52:21.258Z,51.2
2022-11-20T02:57:21.964Z,51.1
2022-11-20T03:02:22.704Z,51
2022-11-20T03:07:23.465Z,50.9
2022-11-20T03:12:24.285Z,50.9
2022-11-20T03:17:25.027Z,50.8
2022-11-20T03:22:25.771Z,50.8
2022-11-20T03:27:26.534Z,50.7
2022-11-20T03:32:27.572Z,50.6
2022-11-20T03:37:28.393Z,50.6
2022-11-20T03:42:29.125Z,50.5
2022-11-20T03:47:29.903Z,50.4
2022-11-20T03:52:30.650Z,50.4
2022-11-20T03:57:31.406Z,50.3
2022-11-20T04:02:32.128Z,50.2
2022-11-20T04:07:32.989Z,50.2
2022-11-20T04:12:33.872Z,50.1
2022-11-20T04:17:34.824Z,50
2022-11-20T04:22:35.565Z,50
2022-11-20T04:27:36.493Z,49.9
2022-11-20T04:32:37.208Z,49.9
2022-11-20T04:37:38.146Z,49.8
2022-11-20T04:42:39.109Z,49.7
2022-11-20T04:47:39.816Z,49.7
2022-11-20T04:52:40.511Z,49.6
2022-11-20T04:57:42.261Z,49.5
2022-11-20T05:02:43.084Z,49.5
2022-11-20T05:07:44.062Z,49.4
2022-11-20T05:12:44.851Z,49.3
2022-11-20T05:17:45.576Z,49.3
2022-11-20T05:22:46.251Z,49.2
2022-11-20T05:27:46.911Z,49.2
2022-11-20T05:32:47.845Z,49.1
2022-11-20T05:37:48.498Z,49.1
2022-11-20T05:42:49.193Z,49
2022-11-20T05:47:49.880Z,48.9
2022-11-20T05:52:50.589Z,48.9
2022-11-20T05:57:51.261Z,48.8
2022-11-20T06:02:51.950Z,48.7
2022-11-20T06:07:52.665Z,48.7
2022-11-20T06:12:53.376Z,48.6
2022-11-20T06:17:54.025Z,48.6
2022-11-20T06:22:54.682Z,48.6
2022-11-20T06:27:55.363Z,48.5
2022-11-20T06:32:56.348Z,48.4
2022-11-20T06:37:56.988Z,48.4
2022-11-20T06:42:57.919Z,48.3
2022-11-20T06:47:58.561Z,48.3
2022-11-20T06:52:59.232Z,48.2
2022-11-20T06:57:59.891Z,48.1
2022-11-20T07:03:00.684Z,48.1
2022-11-20T07:08:01.305Z,48.1
2022-11-20T07:13:01.972Z,48
2022-11-20T07:18:02.645Z,47.9
2022-11-20T07:23:03.290Z,47.9
2022-11-20T07:28:03.912Z,47.8
2022-11-20T07:33:04.547Z,47.7
2022-11-20T07:38:05.213Z,47.7
2022-11-20T07:43:07.268Z,47.7
2022-11-20T07:48:07.858Z,47.6
2022-11-20T07:53:08.470Z,47.6
2022-11-20T07:58:09.135Z,47.5
2022-11-20T08:03:10.640Z,47.4
2022-11-20T08:08:11.301Z,47.4
2022-11-20T08:13:11.909Z,47.4
2022-11-20T08:23:43.194Z,47.2
2022-11-20T08:28:43.784Z,47.2
2022-11-20T08:33:44.507Z,47.1
2022-11-20T08:38:45.091Z,47.1
2022-11-20T08:43:45.651Z,47.1
2022-11-20T08:48:46.260Z,47
2022-11-20T08:53:46.878Z,46.9
2022-11-20T08:59:16.382Z,46.9
2022-11-20T09:04:18.898Z,46.8
2022-11-20T09:09:19.703Z,46.8
2022-11-20T09:14:20.434Z,46.7
2022-11-20T09:19:34.943Z,46.7
2022-11-20T09:24:35.746Z,46.6
2022-11-20T09:29:36.334Z,45.9
2022-11-20T09:34:37.409Z,45.8
2022-11-20T09:39:38.016Z,45.8
2022-11-20T09:44:38.599Z,45.7
2022-11-20T09:49:39.207Z,45.2
2022-11-20T09:54:39.755Z,44.9
2022-11-20T09:59:40.611Z,44.9
2022-11-20T10:04:41.154Z,44.8
2022-11-20T10:09:41.875Z,44.8
2022-11-20T10:14:42.420Z,44.7
2022-11-20T10:19:42.956Z,44.7
2022-11-20T10:24:43.498Z,44.6
2022-11-20T10:29:44.113Z,44.6
2022-11-20T10:34:44.673Z,44.6
2022-11-20T10:39:45.226Z,44.5
2022-11-20T10:44:46.005Z,44.5
2022-11-20T10:49:46.861Z,44.4
2022-11-20T10:54:47.393Z,44.1
2022-11-20T10:59:47.968Z,43.9
2022-11-20T11:04:48.755Z,43.9
2022-11-20T11:09:49.301Z,43.9
2022-11-20T11:14:49.823Z,43.8
2022-11-20T11:19:50.653Z,43.7
2022-11-20T11:24:51.164Z,43.7
2022-11-20T11:29:51.671Z,43.7
2022-11-20T11:34:52.183Z,43.6
2022-11-20T11:40:16.340Z,43.6
2022-11-20T11:45:22.989Z,43.6
2022-11-20T11:50:23.538Z,43.5
2022-11-20T11:55:24.024Z,43.5
2022-11-20T12:00:24.536Z,43.4
2022-11-20T12:05:25.036Z,43.4
2022-11-20T12:10:25.530Z,43.4
2022-11-20T12:15:26.323Z,43.3
2022-11-20T12:20:26.828Z,43.3
2022-11-20T12:25:27.322Z,43.3
2022-11-20T12:30:27.823Z,43.2
2022-11-20T12:35:29.192Z,43.2
2022-11-20T12:40:29.673Z,43.1
2022-11-20T12:45:30.169Z,43.1
2022-11-20T12:50:32.511Z,43
2022-11-20T12:55:35.725Z,43
2022-11-20T13:00:36.265Z,42.9
2022-11-20T13:05:36.778Z,42.9
2022-11-20T13:10:37.290Z,42.9
2022-11-20T13:15:37.815Z,42.8
2022-11-20T13:20:38.341Z,42.7
2022-11-20T13:25:38.831Z,42.7
2022-11-20T13:30:39.350Z,42.7
2022-11-20T13:35:40.706Z,42.6
2022-11-20T13:40:42.072Z,42.6
2022-11-20T13:45:42.597Z,42.6
2022-11-20T13:50:43.123Z,42.5
2022-11-20T13:55:43.609Z,42.5
2022-11-20T14:00:44.103Z,42.4
2022-11-20T14:05:44.569Z,42.4
2022-11-20T14:10:45.095Z,42.4
2022-11-20T14:15:45.572Z,42.4
2022-11-20T14:20:46.049Z,42.3
2022-11-20T14:25:46.501Z,42.3
2022-11-20T14:30:47.836Z,42.2
2022-11-20T14:35:48.348Z,42.2
2022-11-20T14:40:48.830Z,42.2
2022-11-20T14:45:49.312Z,43.4
2022-11-20T14:50:50.105Z,46.1
2022-11-20T14:55:53.843Z,48.4
2022-11-20T15:00:58.365Z,49.8
2022-11-20T15:05:59.157Z,50
2022-11-20T15:10:59.925Z,50
2022-11-20T15:16:01.542Z,50.2
2022-11-20T15:21:02.342Z,51.1
2022-11-20T15:26:03.156Z,52.1
2022-11-20T15:31:03.954Z,52.9
2022-11-20T15:36:04.792Z,53.6
2022-11-20T15:41:05.690Z,53.7
2022-11-20T15:51:13.074Z,53.7
2022-11-20T15:56:13.901Z,53.7
2022-11-20T16:01:15.035Z,53.6
2022-11-20T16:06:15.863Z,53.6
2022-11-20T16:11:16.941Z,53.6
2022-11-20T16:16:17.820Z,53.5
2022-11-20T16:21:18.668Z,53.4
2022-11-20T16:26:19.538Z,53.4
2022-11-20T16:31:20.366Z,53.4
2022-11-20T16:36:21.274Z,53.3
2022-11-20T16:41:22.353Z,53.3
2022-11-20T16:46:23.199Z,53.3
2022-11-20T16:51:24.045Z,53.2
2022-11-20T16:56:24.883Z,53.6
2022-11-20T17:01:25.783Z,54.1
2022-11-20T17:06:26.741Z,54.7
2022-11-20T17:11:27.589Z,55.4
2022-11-20T17:16:28.538Z,55.6
2022-11-20T17:21:29.704Z,55.4
2022-11-20T17:26:30.611Z,55.1
2022-11-20T17:31:31.586Z,52.7
2022-11-20T17:36:32.453Z,52.1
2022-11-20T17:41:33.229Z,51.9
2022-11-20T17:46:33.979Z,51.7
2022-11-20T17:51:34.756Z,51.6
2022-11-20T17:56:35.505Z,51.4
2022-11-20T18:01:36.284Z,51.2
2022-11-20T18:06:37.075Z,51.1
2022-11-20T18:11:37.773Z,51
2022-11-20T18:16:38.616Z,50.5
2022-11-20T18:21:39.216Z,41.4
2022-11-20T18:26:44.000Z,28.9
2022-11-20T18:31:45.943Z,23.7
2022-11-20T18:36:47.519Z,19.5
2022-11-20T18:41:48.989Z,18.8
2022-11-20T18:46:50.615Z,18.8
2022-11-20T18:51:52.074Z,18.8
2022-11-20T18:56:53.533Z,18.8
2022-11-20T19:01:55.045Z,18.8
2022-11-20T19:06:56.519Z,18.9
2022-11-20T19:11:57.992Z,18.9
2022-11-20T19:16:59.477Z,19
2022-11-20T19:22:00.937Z,19
2022-11-20T19:27:02.376Z,19.1
2022-11-20T19:32:04.096Z,19.1
2022-11-20T19:37:05.605Z,19.2
2022-11-20T19:42:07.106Z,19.3
2022-11-20T19:47:13.132Z,19.3
2022-11-20T19:52:15.661Z,19.3
2022-11-20T19:57:17.129Z,19.4
2022-11-20T20:02:18.594Z,19.4
2022-11-20T20:07:21.519Z,19.5
2022-11-20T20:12:23.254Z,19.6
2022-11-20T20:17:24.755Z,19.6
2022-11-20T20:22:26.230Z,19.7
2022-11-20T20:27:27.952Z,19.8
2022-11-20T20:32:29.415Z,19.7
2022-11-20T20:37:30.915Z,19.8
2022-11-20T20:42:32.401Z,19.8
2022-11-20T20:47:33.915Z,19.9
2022-11-20T20:52:34.597Z,19.9
2022-11-20T20:57:36.074Z,20
2022-11-20T21:02:36.746Z,20
2022-11-20T21:07:38.338Z,20.1
2022-11-20T21:12:39.929Z,20.1
2022-11-20T21:17:41.425Z,20.2
2022-11-20T21:22:42.940Z,20.3
2022-11-20T21:27:44.469Z,20.3
2022-11-20T21:32:45.988Z,20.3
2022-11-20T21:37:47.498Z,20.4
2022-11-20T21:42:48.993Z,20.4
2022-11-20T21:47:50.528Z,20.4
2022-11-20T21:52:51.281Z,20.5
2022-11-20T21:57:52.016Z,20.5
2022-11-20T22:02:53.519Z,20.6
2022-11-20T22:07:55.054Z,20.6
2022-11-20T22:12:56.577Z,20.7
2022-11-20T22:17:58.086Z,20.7
2022-11-20T22:22:59.617Z,20.8
2022-11-20T22:28:01.169Z,20.8
2022-11-20T22:33:02.703Z,20.8
2022-11-20T22:38:04.215Z,20.9
2022-11-20T22:43:05.728Z,20.9
2022-11-20T22:48:07.254Z,20.9
2022-11-20T22:53:08.777Z,21
2022-11-20T22:58:10.254Z,21.1
2022-11-20T23:03:11.740Z,21.1
2022-11-20T23:08:13.355Z,21.1
2022-11-20T23:13:15.085Z,21.2
2022-11-20T23:18:16.570Z,21.2
2022-11-20T23:23:18.117Z,21.2
2022-11-20T23:28:19.600Z,21.2
2022-11-20T23:33:21.103Z,21.3
2022-11-20T23:38:22.601Z,21.4
2022-11-20T23:43:24.113Z,21.4
2022-11-20T23:48:25.614Z,21.4
2022-11-20T23:53:27.093Z,21.5
2022-11-20T23:58:28.584Z,21.5
